Time;durP1;ratioP1;P1;durP2;ratioP2;P2;SDS_P1;SDS_P2;PMS_P1;PMS_P2;Temp;Humidity;BMP_temperature;BMP_pressure;BME280_temperature;BME280_humidity;BME280_pressure;Samples;Min_cycle;Max_cycle;Signal;HPM_P1;HPM_P2
2022/11/02 00:00:20;;;;;;;30.57;15.27;;;;;;;;;;1761417;79;21685;-48
2022/11/02 00:02:47;;;;;;;29.97;15.93;;;;;;;;;;1756618;79;21076;-48
2022/11/02 00:05:13;;;;;;;32.37;13.70;;;;;;;;;;1758761;79;21987;-47
2022/11/02 00:07:40;;;;;;;28.50;13.80;;;;;;;;;;1760280;79;21112;-47
2022/11/02 00:10:08;;;;;;;24.90;13.00;;;;;;;;;;1765099;79;21144;-47
2022/11/02 00:12:34;;;;;;;27.60;13.47;;;;;;;;;;1762506;79;21053;-48
2022/11/02 00:15:01;;;;;;;23.60;11.97;;;;;;;;;;1760935;79;21089;-48
2022/11/02 00:17:28;;;;;;;25.93;13.13;;;;;;;;;;1762676;79;21835;-47
2022/11/02 00:19:55;;;;;;;24.90;12.13;;;;;;;;;;1757512;79;21021;-47
2022/11/02 00:22:21;;;;;;;28.17;13.20;;;;;;;;;;1766549;79;22501;-47
2022/11/02 00:24:47;;;;;;;25.63;13.23;;;;;;;;;;1761279;79;21514;-48
2022/11/02 00:27:13;;;;;;;19.80;10.63;;;;;;;;;;1758441;79;21097;-47
2022/11/02 00:29:40;;;;;;;22.47;12.03;;;;;;;;;;1764126;79;21830;-48
2022/11/02 00:32:06;;;;;;;24.10;12.70;;;;;;;;;;1758653;79;21073;-48
2022/11/02 00:34:33;;;;;;;25.37;12.17;;;;;;;;;;1763344;79;21041;-47
2022/11/02 00:36:59;;;;;;;25.53;12.47;;;;;;;;;;1760770;79;21057;-47
2022/11/02 00:39:25;;;;;;;26.87;12.70;;;;;;;;;;1759022;79;21561;-47
2022/11/02 00:41:53;;;;;;;26.43;12.70;;;;;;;;;;1758708;79;22653;-48
2022/11/02 00:44:19;;;;;;;24.30;13.33;;;;;;;;;;1758394;79;21578;-47
2022/11/02 00:46:45;;;;;;;22.30;11.00;;;;;;;;;;1739254;80;21069;-47
2022/11/02 00:49:11;;;;;;;23.90;11.17;;;;;;;;;;1762402;79;21040;-47
2022/11/02 00:51:38;;;;;;;20.60;11.03;;;;;;;;;;1759036;79;21067;-47
2022/11/02 00:54:04;;;;;;;24.20;12.00;;;;;;;;;;1765126;80;21822;-46
2022/11/02 00:56:31;;;;;;;23.17;11.23;;;;;;;;;;1765249;79;21039;-47
2022/11/02 00:58:58;;;;;;;20.93;11.10;;;;;;;;;;1760860;79;21077;-47
2022/11/02 01:01:24;;;;;;;24.30;11.13;;;;;;;;;;1763155;79;21043;-46
2022/11/02 01:03:51;;;;;;;25.33;11.70;;;;;;;;;;1759721;79;21039;-47
2022/11/02 01:06:17;;;;;;;22.17;10.50;;;;;;;;;;1762525;79;22524;-47
2022/11/02 01:08:43;;;;;;;25.57;11.23;;;;;;;;;;1761202;80;21051;-48
2022/11/02 01:11:14;;;;;;;26.50;10.47;;;;;;;;;;1762825;80;21028;-47
2022/11/02 01:13:40;;;;;;;20.73;11.60;;;;;;;;;;1760308;79;22187;-47
2022/11/02 01:16:07;;;;;;;24.07;12.47;;;;;;;;;;1766492;79;21022;-47
2022/11/02 01:18:34;;;;;;;25.70;13.07;;;;;;;;;;1760698;79;22005;-48
2022/11/02 01:21:00;;;;;;;31.57;12.80;;;;;;;;;;1760890;79;21182;-47
2022/11/02 01:23:26;;;;;;;23.70;10.77;;;;;;;;;;1762637;79;21037;-47
2022/11/02 01:25:53;;;;;;;22.57;11.17;;;;;;;;;;1757535;80;21049;-47
2022/11/02 01:28:19;;;;;;;24.63;10.87;;;;;;;;;;1759580;79;21057;-48
2022/11/02 01:30:48;;;;;;;23.63;11.60;;;;;;;;;;1757289;79;21906;-47
2022/11/02 01:33:15;;;;;;;26.40;12.77;;;;;;;;;;1756904;79;21097;-47
2022/11/02 01:35:42;;;;;;;20.40;11.53;;;;;;;;;;1758862;79;21506;-47
2022/11/02 01:38:09;;;;;;;25.80;12.63;;;;;;;;;;1760785;79;21074;-47
2022/11/02 01:40:36;;;;;;;27.93;11.90;;;;;;;;;;1758678;80;21073;-47
2022/11/02 01:43:30;;;;;;;22.43;12.30;;;;;;;;;;1753482;79;21879;-47
2022/11/02 01:46:05;;;;;;;26.10;13.17;;;;;;;;;;1758455;79;21520;-48
2022/11/02 01:48:36;;;;;;;23.27;13.17;;;;;;;;;;1756678;79;21041;-47
2022/11/02 01:51:05;;;;;;;27.73;13.40;;;;;;;;;;1754685;79;21045;-47
2022/11/02 01:53:32;;;;;;;27.33;13.43;;;;;;;;;;1757687;79;21058;-47
2022/11/02 01:55:59;;;;;;;25.23;13.30;;;;;;;;;;1757276;79;21850;-47
2022/11/02 01:58:26;;;;;;;26.90;14.20;;;;;;;;;;1757803;79;21033;-48
2022/11/02 02:00:52;;;;;;;27.90;13.57;;;;;;;;;;1754547;79;21740;-47
2022/11/02 02:03:20;;;;;;;23.93;12.57;;;;;;;;;;1756248;79;21411;-48
2022/11/02 02:05:49;;;;;;;24.13;12.60;;;;;;;;;;1755236;79;21049;-48
2022/11/02 02:08:18;;;;;;;27.37;12.97;;;;;;;;;;1738569;81;21841;-48
2022/11/02 02:10:45;;;;;;;23.53;12.83;;;;;;;;;;1755624;79;21037;-47
2022/11/02 02:13:11;;;;;;;21.80;11.50;;;;;;;;;;1755657;79;21035;-48
2022/11/02 02:15:42;;;;;;;21.23;11.07;;;;;;;;;;1755049;79;21239;-47
2022/11/02 02:18:15;;;;;;;22.07;11.27;;;;;;;;;;1743655;79;21021;-48
2022/11/02 02:20:54;;;;;;;19.17;9.40;;;;;;;;;;1753536;79;21864;-48
2022/11/02 02:23:55;;;;;;;22.13;10.47;;;;;;;;;;1755245;79;21033;-48
2022/11/02 02:26:46;;;;;;;20.77;11.43;;;;;;;;;;1752307;79;21049;-46
2022/11/02 02:29:21;;;;;;;20.20;9.63;;;;;;;;;;1708977;79;21253;-47
2022/11/02 02:31:57;;;;;;;22.07;10.60;;;;;;;;;;1713469;81;21089;-47
2022/11/02 02:34:27;;;;;;;22.07;11.53;;;;;;;;;;1728229;80;21870;-47
2022/11/02 02:36:57;;;;;;;20.50;10.67;;;;;;;;;;1670502;84;21048;-48
2022/11/02 02:39:39;;;;;;;26.07;12.40;;;;;;;;;;1726586;80;21081;-47
2022/11/02 02:42:33;;;;;;;22.47;10.80;;;;;;;;;;1728036;80;21092;-47
2022/11/02 02:45:13;;;;;;;20.00;10.33;;;;;;;;;;1728253;80;21164;-48
2022/11/02 02:47:51;;;;;;;21.63;10.53;;;;;;;;;;1726964;80;21038;-47
2022/11/02 02:50:20;;;;;;;21.03;10.97;;;;;;;;;;1724889;80;21379;-47
2022/11/02 02:52:47;;;;;;;18.30;10.10;;;;;;;;;;1731854;80;21048;-47
2022/11/02 02:55:16;;;;;;;26.30;10.30;;;;;;;;;;1730700;80;21042;-48
2022/11/02 02:57:43;;;;;;;22.93;11.07;;;;;;;;;;1698189;81;21082;-47
2022/11/02 03:00:12;;;;;;;19.93;11.13;;;;;;;;;;1723783;80;22860;-47
2022/11/02 03:02:39;;;;;;;19.50;9.10;;;;;;;;;;1719872;80;20986;-47
2022/11/02 03:05:27;;;;;;;20.03;10.10;;;;;;;;;;1727008;80;21332;-47
2022/11/02 03:07:55;;;;;;;20.00;10.03;;;;;;;;;;1666430;84;21133;-48
2022/11/02 03:10:37;;;;;;;18.67;8.73;;;;;;;;;;1736609;80;21011;-46
2022/11/02 03:13:43;;;;;;;16.13;8.43;;;;;;;;;;1724491;80;21847;-47
2022/11/02 03:16:19;;;;;;;22.00;9.13;;;;;;;;;;1731462;80;21042;-46
2022/11/02 03:18:53;;;;;;;17.37;8.33;;;;;;;;;;1735481;80;21055;-48
2022/11/02 03:21:35;;;;;;;17.10;7.80;;;;;;;;;;1722617;80;21058;-47
2022/11/02 03:24:26;;;;;;;19.27;9.53;;;;;;;;;;1723261;80;22387;-47
2022/11/02 03:27:23;;;;;;;20.10;9.90;;;;;;;;;;1733816;80;22355;-47
2022/11/02 03:29:53;;;;;;;14.73;7.50;;;;;;;;;;1725272;80;21114;-47
2022/11/02 03:32:29;;;;;;;21.53;9.33;;;;;;;;;;1730197;80;21059;-47
2022/11/02 03:34:57;;;;;;;23.27;11.37;;;;;;;;;;1707491;82;20997;-47
2022/11/02 03:37:33;;;;;;;21.83;9.63;;;;;;;;;;1744867;79;21442;-48
2022/11/02 03:40:15;;;;;;;18.80;10.23;;;;;;;;;;1738750;79;21782;-47
2022/11/02 03:42:42;;;;;;;19.80;10.53;;;;;;;;;;1712329;79;20973;-47
2022/11/02 03:45:19;;;;;;;23.07;10.90;;;;;;;;;;1746313;80;20990;-47
2022/11/02 03:47:48;;;;;;;18.90;8.07;;;;;;;;;;1735554;79;21202;-47
2022/11/02 03:50:17;;;;;;;19.33;9.60;;;;;;;;;;1739289;80;21060;-47
2022/11/02 03:52:44;;;;;;;23.00;10.70;;;;;;;;;;1714828;81;21959;-46
2022/11/02 03:55:12;;;;;;;25.33;11.57;;;;;;;;;;1740316;79;21053;-48
2022/11/02 03:57:46;;;;;;;21.00;9.47;;;;;;;;;;1736645;79;21522;-46
2022/11/02 04:00:17;;;;;;;21.35;8.65;;;;;;;;;;1735589;79;21421;-46
2022/11/02 04:02:47;;;;;;;18.80;8.77;;;;;;;;;;1736439;79;21080;-47
2022/11/02 04:05:13;;;;;;;20.87;10.83;;;;;;;;;;1741050;79;21894;-47
2022/11/02 04:10:27;;;;;;;20.20;10.70;;;;;;;;;;1733098;79;21006;-47
2022/11/02 04:15:39;;;;;;;18.33;10.07;;;;;;;;;;1737763;79;21026;-47
2022/11/02 04:20:52;;;;;;;21.07;9.63;;;;;;;;;;1743680;79;21666;-47
2022/11/02 04:26:04;;;;;;;19.10;9.13;;;;;;;;;;1739855;79;21073;-46
2022/11/02 04:28:35;;;;;;;18.07;8.47;;;;;;;;;;1735956;80;21028;-46
2022/11/02 04:31:01;;;;;;;15.77;7.83;;;;;;;;;;1743864;80;21783;-47
2022/11/02 04:33:32;;;;;;;15.70;8.17;;;;;;;;;;1759393;79;21018;-47
2022/11/02 04:36:09;;;;;;;14.67;7.50;;;;;;;;;;1752364;79;21012;-46
2022/11/02 04:38:40;;;;;;;18.37;8.17;;;;;;;;;;1757797;79;21021;-46
2022/11/02 04:44:05;;;;;;;17.03;9.87;;;;;;;;;;1755184;79;21831;-46
2022/11/02 04:46:33;;;;;;;15.63;9.40;;;;;;;;;;1753454;79;21458;-47
2022/11/02 04:49:00;;;;;;;17.70;8.00;;;;;;;;;;1760295;79;21593;-48
2022/11/02 04:51:28;;;;;;;20.50;8.80;;;;;;;;;;1751657;79;21218;-46
2022/11/02 04:53:56;;;;;;;18.90;8.50;;;;;;;;;;1753536;79;21503;-46
2022/11/02 04:56:23;;;;;;;16.37;8.17;;;;;;;;;;1759357;79;22001;-47
2022/11/02 04:58:51;;;;;;;19.37;8.20;;;;;;;;;;1755147;80;21052;-47
2022/11/02 05:01:18;;;;;;;19.03;7.97;;;;;;;;;;1734907;80;21483;-47
2022/11/02 05:03:47;;;;;;;13.60;7.43;;;;;;;;;;1754129;79;21093;-47
2022/11/02 05:06:15;;;;;;;18.33;9.90;;;;;;;;;;1757814;79;21519;-46
2022/11/02 05:08:42;;;;;;;20.83;9.07;;;;;;;;;;1758220;79;21217;-46
2022/11/02 05:11:10;;;;;;;18.03;7.83;;;;;;;;;;1753798;79;21629;-47
2022/11/02 05:13:36;;;;;;;22.10;8.70;;;;;;;;;;1758285;79;21050;-47
2022/11/02 05:16:03;;;;;;;11.93;7.10;;;;;;;;;;1763742;79;21023;-47
2022/11/02 05:18:30;;;;;;;20.97;8.43;;;;;;;;;;1757485;79;21042;-47
2022/11/02 05:20:58;;;;;;;17.50;8.80;;;;;;;;;;1754313;79;21801;-46
2022/11/02 05:23:26;;;;;;;19.37;8.87;;;;;;;;;;1752800;79;21519;-47
2022/11/02 05:25:53;;;;;;;16.33;8.33;;;;;;;;;;1760327;79;21580;-47
2022/11/02 05:28:20;;;;;;;14.63;8.47;;;;;;;;;;1761202;79;22180;-47
2022/11/02 05:30:46;;;;;;;15.50;8.40;;;;;;;;;;1761197;79;22312;-47
2022/11/02 05:33:13;;;;;;;17.77;9.10;;;;;;;;;;1756799;79;21732;-47
2022/11/02 05:35:40;;;;;;;18.90;9.57;;;;;;;;;;1759464;79;21066;-47
2022/11/02 05:38:06;;;;;;;12.03;8.03;;;;;;;;;;1760947;79;21079;-47
2022/11/02 05:40:36;;;;;;;16.37;9.03;;;;;;;;;;1757093;79;21041;-47
2022/11/02 05:43:02;;;;;;;16.17;8.37;;;;;;;;;;1760184;79;21047;-46
2022/11/02 05:45:28;;;;;;;22.53;7.97;;;;;;;;;;1755562;79;23034;-46
2022/11/02 05:47:54;;;;;;;15.97;7.53;;;;;;;;;;1761652;79;22102;-47
2022/11/02 05:50:21;;;;;;;16.50;7.63;;;;;;;;;;1756144;79;21073;-46
2022/11/02 05:52:47;;;;;;;17.50;7.90;;;;;;;;;;1761998;79;21338;-46
2022/11/02 05:55:14;;;;;;;15.83;8.20;;;;;;;;;;1754198;80;21042;-47
2022/11/02 05:57:40;;;;;;;17.03;7.67;;;;;;;;;;1754081;80;21844;-46
2022/11/02 06:00:08;;;;;;;14.30;6.73;;;;;;;;;;1757210;80;21321;-47
2022/11/02 06:02:36;;;;;;;18.00;7.90;;;;;;;;;;1760444;79;20974;-46
2022/11/02 06:06:26;;;;;;;12.83;6.87;;;;;;;;;;1755520;79;27386;-48
2022/11/02 06:08:54;;;;;;;17.80;9.07;;;;;;;;;;1710192;80;21078;-47
2022/11/02 06:11:21;;;;;;;15.50;8.83;;;;;;;;;;1741320;80;21870;-47
2022/11/02 06:13:49;;;;;;;24.33;11.60;;;;;;;;;;1739930;80;21054;-47
2022/11/02 06:16:16;;;;;;;17.13;8.93;;;;;;;;;;1736671;80;21327;-47
2022/11/02 06:18:42;;;;;;;23.23;11.10;;;;;;;;;;1738024;81;21077;-47
2022/11/02 06:21:10;;;;;;;18.07;8.90;;;;;;;;;;1734906;80;21049;-47
2022/11/02 06:23:37;;;;;;;17.93;9.77;;;;;;;;;;1737175;80;21866;-47
2022/11/02 06:26:04;;;;;;;19.47;8.33;;;;;;;;;;1729073;80;21126;-47
2022/11/02 06:28:32;;;;;;;19.77;8.70;;;;;;;;;;1734002;80;21061;-47
2022/11/02 06:31:01;;;;;;;16.87;7.37;;;;;;;;;;1707674;81;21069;-47
2022/11/02 06:33:28;;;;;;;20.00;8.80;;;;;;;;;;1735971;80;21128;-46
2022/11/02 06:35:55;;;;;;;17.97;9.37;;;;;;;;;;1741311;80;22564;-47
2022/11/02 06:38:21;;;;;;;23.30;9.50;;;;;;;;;;1734972;80;21550;-46
2022/11/02 06:40:57;;;;;;;22.67;13.07;;;;;;;;;;1732050;80;21147;-47
2022/11/02 06:43:23;;;;;;;22.83;11.63;;;;;;;;;;1733394;80;21089;-47
2022/11/02 06:45:57;;;;;;;20.00;11.40;;;;;;;;;;1737864;80;21599;-48
2022/11/02 06:48:25;;;;;;;26.87;12.70;;;;;;;;;;1734627;80;21777;-47
2022/11/02 06:50:51;;;;;;;24.00;13.47;;;;;;;;;;1737959;80;21533;-47
2022/11/02 06:53:18;;;;;;;28.37;14.27;;;;;;;;;;1737182;80;21034;-48
2022/11/02 06:55:52;;;;;;;27.20;14.80;;;;;;;;;;1707065;81;21101;-49
2022/11/02 06:58:18;;;;;;;31.83;16.33;;;;;;;;;;1706245;81;21083;-47
2022/11/02 07:00:44;;;;;;;29.70;16.87;;;;;;;;;;1709385;81;21841;-47
2022/11/02 07:03:11;;;;;;;34.90;17.17;;;;;;;;;;1678806;82;21132;-48
2022/11/02 07:05:38;;;;;;;31.87;16.43;;;;;;;;;;1704289;82;21117;-48
2022/11/02 07:08:05;;;;;;;31.27;15.90;;;;;;;;;;1702354;82;21104;-47
2022/11/02 07:10:31;;;;;;;34.07;14.20;;;;;;;;;;1707771;82;21077;-47
2022/11/02 07:12:59;;;;;;;25.80;14.17;;;;;;;;;;1702969;82;21001;-47
2022/11/02 07:15:25;;;;;;;31.43;14.57;;;;;;;;;;1703597;82;21104;-47
2022/11/02 07:17:51;;;;;;;27.47;14.60;;;;;;;;;;1707429;82;21073;-48
2022/11/02 07:20:18;;;;;;;28.10;15.27;;;;;;;;;;1706570;82;21060;-49
2022/11/02 07:22:56;;;;;;;29.63;15.50;;;;;;;;;;1700959;82;21084;-48
2022/11/02 07:25:22;;;;;;;30.13;15.50;;;;;;;;;;1686119;82;23443;-48
2022/11/02 07:27:49;;;;;;;29.07;14.27;;;;;;;;;;1707679;82;21388;-47
2022/11/02 07:30:15;;;;;;;25.30;14.30;;;;;;;;;;1700702;82;22376;-48
2022/11/02 07:32:43;;;;;;;31.97;15.07;;;;;;;;;;1702799;82;21681;-48
2022/11/02 07:35:11;;;;;;;29.63;15.27;;;;;;;;;;1706034;82;21498;-48
2022/11/02 07:37:38;;;;;;;30.43;13.53;;;;;;;;;;1699630;82;21932;-48
2022/11/02 07:40:07;;;;;;;31.57;14.87;;;;;;;;;;1703733;82;21146;-48
2022/11/02 07:42:34;;;;;;;29.87;14.73;;;;;;;;;;1705690;82;21034;-48
2022/11/02 07:45:02;;;;;;;22.63;13.73;;;;;;;;;;1705350;82;20981;-47
2022/11/02 07:47:29;;;;;;;36.33;15.60;;;;;;;;;;1707476;82;21621;-49
2022/11/02 07:49:58;;;;;;;32.30;14.03;;;;;;;;;;1705351;83;21740;-47
2022/11/02 07:52:24;;;;;;;24.33;14.17;;;;;;;;;;1707664;82;21600;-47
2022/11/02 07:54:51;;;;;;;28.77;15.83;;;;;;;;;;1678359;83;21471;-47
2022/11/02 07:57:17;;;;;;;26.10;14.40;;;;;;;;;;1670016;83;21059;-48
2022/11/02 07:59:44;;;;;;;27.47;13.87;;;;;;;;;;1667438;83;21841;-48
2022/11/02 08:02:12;;;;;;;30.13;14.33;;;;;;;;;;1656783;84;21789;-48
2022/11/02 08:04:38;;;;;;;31.67;15.47;;;;;;;;;;1640458;85;21053;-48
2022/11/02 08:07:05;;;;;;;32.87;14.57;;;;;;;;;;1653166;84;20987;-48
2022/11/02 08:09:31;;;;;;;25.63;14.40;;;;;;;;;;1704516;82;21013;-48
2022/11/02 08:11:57;;;;;;;29.33;14.63;;;;;;;;;;1705712;82;21031;-48
2022/11/02 08:14:23;;;;;;;28.27;16.40;;;;;;;;;;1701949;82;21817;-48
2022/11/02 08:16:52;;;;;;;28.60;17.03;;;;;;;;;;1704002;82;21060;-47
2022/11/02 08:19:20;;;;;;;24.33;15.00;;;;;;;;;;1697497;82;21065;-47
2022/11/02 08:21:46;;;;;;;28.62;16.73;;;;;;;;;;1703994;82;21081;-48
2022/11/02 08:24:12;;;;;;;31.97;16.15;;;;;;;;;;1701038;82;21066;-47
2022/11/02 08:26:39;;;;;;;31.62;17.07;;;;;;;;;;1703258;82;23141;-48
2022/11/02 08:29:06;;;;;;;29.35;16.00;;;;;;;;;;1700565;82;21033;-48
2022/11/02 08:31:33;;;;;;;25.20;16.30;;;;;;;;;;1703397;82;21468;-49
2022/11/02 08:33:59;;;;;;;28.70;17.35;;;;;;;;;;1693352;82;21096;-48
2022/11/02 08:36:26;;;;;;;26.65;16.87;;;;;;;;;;1703551;82;21050;-48
2022/11/02 08:38:52;;;;;;;30.45;18.05;;;;;;;;;;1705333;82;22661;-48
2022/11/02 08:41:18;;;;;;;36.75;19.17;;;;;;;;;;1703002;82;21574;-48
2022/11/02 08:43:45;;;;;;;26.30;17.23;;;;;;;;;;1698749;82;21082;-48
2022/11/02 08:46:11;;;;;;;27.05;17.23;;;;;;;;;;1696752;82;21069;-47
2022/11/02 08:48:37;;;;;;;23.73;16.25;;;;;;;;;;1702706;82;21284;-47
2022/11/02 08:51:04;;;;;;;25.82;15.13;;;;;;;;;;1699216;82;21833;-48
2022/11/02 08:53:30;;;;;;;29.95;16.80;;;;;;;;;;1704771;82;21054;-48
2022/11/02 08:55:57;;;;;;;26.27;15.83;;;;;;;;;;1697667;82;21084;-48
2022/11/02 08:58:24;;;;;;;27.80;15.58;;;;;;;;;;1707173;82;21164;-49
2022/11/02 09:00:51;;;;;;;32.55;15.58;;;;;;;;;;1699880;82;21096;-50
2022/11/02 09:03:19;;;;;;;29.42;16.30;;;;;;;;;;1697282;82;21799;-48
2022/11/02 09:05:46;;;;;;;27.15;15.93;;;;;;;;;;1699093;82;21069;-48
2022/11/02 09:08:15;;;;;;;31.30;16.97;;;;;;;;;;1694337;82;21062;-48
2022/11/02 09:10:42;;;;;;;27.58;16.37;;;;;;;;;;1696094;82;21666;-48
2022/11/02 09:13:11;;;;;;;28.38;16.55;;;;;;;;;;1692839;82;21549;-48
2022/11/02 09:15:37;;;;;;;30.88;17.27;;;;;;;;;;1693187;82;22870;-49
2022/11/02 09:18:05;;;;;;;31.17;17.00;;;;;;;;;;1695629;83;22174;-49
2022/11/02 09:20:33;;;;;;;26.87;15.72;;;;;;;;;;1659528;85;21591;-49
2022/11/02 09:22:59;;;;;;;25.32;16.27;;;;;;;;;;1656403;84;21096;-48
2022/11/02 09:25:26;;;;;;;25.92;16.10;;;;;;;;;;1695377;82;21244;-48
2022/11/02 09:27:54;;;;;;;28.15;16.00;;;;;;;;;;1697473;83;21880;-49
2022/11/02 09:30:21;;;;;;;29.18;16.77;;;;;;;;;;1698289;83;21077;-48
2022/11/02 09:33:02;;;;;;;33.53;17.40;;;;;;;;;;1687886;82;21057;-48
2022/11/02 09:35:31;;;;;;;22.87;15.20;;;;;;;;;;1692261;82;21645;-48
2022/11/02 09:37:57;;;;;;;27.73;14.87;;;;;;;;;;1692189;83;21061;-49
2022/11/02 09:40:28;;;;;;;25.88;15.32;;;;;;;;;;1690088;83;23193;-49
2022/11/02 09:43:10;;;;;;;26.15;15.32;;;;;;;;;;1691710;82;21697;-47
2022/11/02 09:45:40;;;;;;;24.95;15.10;;;;;;;;;;1691759;82;21189;-48
2022/11/02 09:48:13;;;;;;;24.32;14.65;;;;;;;;;;1692537;83;21066;-48
2022/11/02 09:50:57;;;;;;;21.20;12.50;;;;;;;;;;1690088;83;21145;-48
2022/11/02 09:53:42;;;;;;;24.25;13.15;;;;;;;;;;1694924;82;22021;-49
2022/11/02 09:56:08;;;;;;;;;;;;;;;;;;1691783;82;21090;-48
2022/11/02 09:58:37;;;;;;;25.72;15.03;;;;;;;;;;1691737;82;20473;-49
2022/11/02 10:01:22;;;;;;;21.17;13.38;;;;;;;;;;1692336;82;21644;-49
2022/11/02 10:04:03;;;;;;;22.93;14.05;;;;;;;;;;1682931;82;21061;-48
2022/11/02 10:06:29;;;;;;;23.18;14.07;;;;;;;;;;1689600;82;21968;-49
2022/11/02 10:09:08;;;;;;;31.35;16.52;;;;;;;;;;1691630;82;21144;-50
2022/11/02 10:11:41;;;;;;;27.45;16.25;;;;;;;;;;1695187;82;21095;-49
2022/11/02 10:14:32;;;;;;;30.35;14.63;;;;;;;;;;1688266;83;21077;-48
2022/11/02 10:17:17;;;;;;;21.73;14.60;;;;;;;;;;1689912;82;21046;-49
2022/11/02 10:19:48;;;;;;;24.10;14.00;;;;;;;;;;1650195;85;22394;-48
2022/11/02 10:22:14;;;;;;;24.20;14.55;;;;;;;;;;1663949;83;21028;-48
2022/11/02 10:24:45;;;;;;;22.95;14.25;;;;;;;;;;1673793;83;21002;-48
2022/11/02 10:27:22;;;;;;;21.73;13.93;;;;;;;;;;1669812;83;21070;-48
2022/11/02 10:30:01;;;;;;;23.00;13.62;;;;;;;;;;1673145;83;21464;-48
2022/11/02 10:32:27;;;;;;;22.75;13.45;;;;;;;;;;1665769;85;22233;-47
2022/11/02 10:34:54;;;;;;;18.20;12.35;;;;;;;;;;1614380;85;21008;-48
2022/11/02 10:37:27;;;;;;;24.52;13.88;;;;;;;;;;1667613;83;21015;-49
2022/11/02 10:40:02;;;;;;;19.85;12.93;;;;;;;;;;1662848;83;21067;-48
2022/11/02 10:42:32;;;;;;;24.77;14.78;;;;;;;;;;1665209;84;21058;-47
2022/11/02 10:45:14;;;;;;;22.95;14.93;;;;;;;;;;1670393;83;21911;-48
2022/11/02 10:47:54;;;;;;;24.52;15.83;;;;;;;;;;1669593;83;21045;-47
2022/11/02 10:50:33;;;;;;;22.65;14.73;;;;;;;;;;1670727;83;21038;-48
2022/11/02 10:53:01;;;;;;;24.30;13.88;;;;;;;;;;1668430;83;21120;-48
2022/11/02 10:55:35;;;;;;;22.05;14.73;;;;;;;;;;1662669;84;21120;-48
2022/11/02 10:58:02;;;;;;;26.05;14.07;;;;;;;;;;1669805;83;21782;-48
2022/11/02 11:00:33;;;;;;;21.27;12.73;;;;;;;;;;1644194;85;22017;-48
2022/11/02 11:03:07;;;;;;;15.23;10.40;;;;;;;;;;1662763;83;21124;-49
2022/11/02 11:05:37;;;;;;;17.55;10.10;;;;;;;;;;1670586;84;21572;-48
2022/11/02 11:08:05;;;;;;;15.78;10.78;;;;;;;;;;1673215;85;21157;-48
2022/11/02 11:10:35;;;;;;;16.82;9.53;;;;;;;;;;1610906;85;23360;-48
2022/11/02 11:13:02;;;;;;;17.30;10.48;;;;;;;;;;1668674;83;21109;-48
2022/11/02 11:15:30;;;;;;;15.35;10.98;;;;;;;;;;1669133;84;21061;-48
2022/11/02 11:17:58;;;;;;;19.35;11.60;;;;;;;;;;1668415;84;21068;-48
2022/11/02 11:20:35;;;;;;;17.98;9.23;;;;;;;;;;1666617;83;21100;-48
2022/11/02 11:23:17;;;;;;;13.78;9.20;;;;;;;;;;1668622;84;21837;-47
2022/11/02 11:25:58;;;;;;;14.55;9.70;;;;;;;;;;1666638;85;21112;-48
2022/11/02 11:28:41;;;;;;;18.55;10.30;;;;;;;;;;1660142;85;21388;-48
2022/11/02 11:31:11;;;;;;;18.00;9.70;;;;;;;;;;1667921;85;21531;-49
2022/11/02 11:33:46;;;;;;;14.45;9.85;;;;;;;;;;1671796;83;21057;-49
2022/11/02 11:36:21;;;;;;;14.43;9.78;;;;;;;;;;1674518;83;22345;-48
2022/11/02 11:38:47;;;;;;;12.07;8.30;;;;;;;;;;1664817;83;21594;-49
2022/11/02 11:41:13;;;;;;;15.03;9.75;;;;;;;;;;1667850;83;21087;-49
2022/11/02 11:43:40;;;;;;;13.85;8.50;;;;;;;;;;1669252;83;22208;-49
2022/11/02 11:46:07;;;;;;;15.08;10.00;;;;;;;;;;1668640;83;21510;-49
2022/11/02 11:48:43;;;;;;;18.07;10.53;;;;;;;;;;1664950;85;21853;-49
2022/11/02 11:51:41;;;;;;;13.85;9.15;;;;;;;;;;1675738;83;21085;-49
2022/11/02 11:54:27;;;;;;;12.50;8.43;;;;;;;;;;1666254;84;21176;-49
2022/11/02 11:56:57;;;;;;;14.20;7.67;;;;;;;;;;1663462;85;21088;-48
2022/11/02 11:59:44;;;;;;;14.30;9.40;;;;;;;;;;1664759;85;21508;-49
2022/11/02 12:02:20;;;;;;;14.73;8.73;;;;;;;;;;1664321;85;23388;-49
2022/11/02 12:04:46;;;;;;;11.30;8.50;;;;;;;;;;1658580;83;21561;-49
2022/11/02 12:07:19;;;;;;;13.70;8.78;;;;;;;;;;1670567;83;21550;-49
2022/11/02 12:10:01;;;;;;;18.32;9.90;;;;;;;;;;1670892;84;21310;-49
2022/11/02 12:12:38;;;;;;;14.63;8.55;;;;;;;;;;1628750;85;21080;-48
2022/11/02 12:15:21;;;;;;;13.13;9.13;;;;;;;;;;1665363;85;21864;-49
2022/11/02 12:18:15;;;;;;;14.28;9.30;;;;;;;;;;1662157;83;21073;-49
2022/11/02 12:21:10;;;;;;;19.48;7.28;;;;;;;;;;1667417;83;21083;-50
2022/11/02 12:24:02;;;;;;;15.28;8.70;;;;;;;;;;1591609;88;21445;-48
2022/11/02 12:26:52;;;;;;;10.13;6.80;;;;;;;;;;1661477;83;21054;-49
2022/11/02 12:29:43;;;;;;;13.13;6.60;;;;;;;;;;1670224;85;21972;-50
2022/11/02 12:32:24;;;;;;;10.00;6.75;;;;;;;;;;1664621;84;21096;-49
2022/11/02 12:35:18;;;;;;;8.28;6.20;;;;;;;;;;1670015;83;21069;-48
2022/11/02 12:37:57;;;;;;;10.50;7.75;;;;;;;;;;1668650;83;21085;-48
2022/11/02 12:40:45;;;;;;;15.35;7.55;;;;;;;;;;1666727;83;21074;-49
2022/11/02 12:43:41;;;;;;;12.60;7.45;;;;;;;;;;1664759;83;21837;-48
2022/11/02 12:46:29;;;;;;;14.87;7.60;;;;;;;;;;1664970;83;21055;-50
2022/11/02 12:49:08;;;;;;;11.45;7.35;;;;;;;;;;1668555;83;21096;-48
2022/11/02 12:51:47;;;;;;;12.45;7.90;;;;;;;;;;1670259;83;21038;-48
2022/11/02 12:54:21;;;;;;;15.75;8.35;;;;;;;;;;1667368;83;21135;-50
2022/11/02 12:56:51;;;;;;;15.77;8.30;;;;;;;;;;1665912;83;21865;-50
2022/11/02 12:59:29;;;;;;;12.43;8.10;;;;;;;;;;1661270;83;21402;-48
2022/11/02 13:02:08;;;;;;;11.68;7.60;;;;;;;;;;1664897;83;21077;-48
2022/11/02 13:04:41;;;;;;;12.82;7.58;;;;;;;;;;1669012;83;21643;-50
2022/11/02 13:07:11;;;;;;;10.43;7.33;;;;;;;;;;1663560;83;21085;-48
2022/11/02 13:09:40;;;;;;;13.10;7.28;;;;;;;;;;1667717;83;22502;-48
2022/11/02 13:12:09;;;;;;;10.78;8.20;;;;;;;;;;1669245;83;21459;-49
2022/11/02 13:14:41;;;;;;;10.50;6.60;;;;;;;;;;1670221;84;20984;-50
2022/11/02 13:17:15;;;;;;;15.80;7.22;;;;;;;;;;1668495;84;21504;-49
2022/11/02 13:19:50;;;;;;;11.73;8.15;;;;;;;;;;1667732;83;21078;-50
2022/11/02 13:22:17;;;;;;;10.93;7.70;;;;;;;;;;1636017;85;22517;-49
2022/11/02 13:24:45;;;;;;;17.98;7.83;;;;;;;;;;1669828;85;21004;-49
2022/11/02 13:27:31;;;;;;;11.38;8.50;;;;;;;;;;1668942;84;21001;-50
2022/11/02 13:29:59;;;;;;;15.60;10.23;;;;;;;;;;1666640;85;21054;-50
2022/11/02 13:32:44;;;;;;;10.98;8.60;;;;;;;;;;1662403;84;21437;-52
2022/11/02 13:35:19;;;;;;;12.20;9.48;;;;;;;;;;1667937;83;21886;-49
2022/11/02 13:37:48;;;;;;;13.88;9.38;;;;;;;;;;1665273;83;21003;-49
2022/11/02 13:40:18;;;;;;;19.48;10.65;;;;;;;;;;1673460;83;21438;-49
2022/11/02 13:42:51;;;;;;;15.68;11.20;;;;;;;;;;1671680;83;21205;-49
2022/11/02 13:45:44;;;;;;;16.35;10.35;;;;;;;;;;1667572;83;21055;-49
2022/11/02 13:48:23;;;;;;;17.62;10.10;;;;;;;;;;1668581;83;22439;-50
2022/11/02 13:50:51;;;;;;;15.45;10.03;;;;;;;;;;1667237;85;21539;-50
2022/11/02 13:53:22;;;;;;;17.27;10.40;;;;;;;;;;1671273;83;20975;-49
2022/11/02 13:55:59;;;;;;;14.10;9.70;;;;;;;;;;1669182;83;21373;-49
2022/11/02 13:58:34;;;;;;;29.98;12.30;;;;;;;;;;1674213;83;21059;-49
2022/11/02 14:01:02;;;;;;;18.07;10.58;;;;;;;;;;1674751;85;23081;-48
2022/11/02 14:03:49;;;;;;;17.60;10.80;;;;;;;;;;1667397;83;21368;-50
2022/11/02 14:06:16;;;;;;;15.72;11.12;;;;;;;;;;1663379;84;21070;-50
2022/11/02 14:08:52;;;;;;;18.55;11.10;;;;;;;;;;1677984;84;21061;-49
2022/11/02 14:11:22;;;;;;;24.10;12.00;;;;;;;;;;1672901;85;21078;-49
2022/11/02 14:15:15;;;;;;;19.70;11.90;;;;;;;;;;1792046;78;22476;-46
2022/11/02 14:18:00;;;;;;;20.70;12.03;;;;;;;;;;1770903;79;21376;-48
2022/11/02 14:20:39;;;;;;;21.68;13.72;;;;;;;;;;1781688;79;21916;-48
2022/11/02 14:23:13;;;;;;;21.33;12.63;;;;;;;;;;1778774;78;21084;-49
2022/11/02 14:25:55;;;;;;;19.37;12.85;;;;;;;;;;1778147;79;21233;-48
2022/11/02 14:28:30;;;;;;;20.70;12.73;;;;;;;;;;1771769;79;21559;-48
2022/11/02 14:31:06;;;;;;;24.18;12.63;;;;;;;;;;1772887;79;21180;-48
2022/11/02 14:34:10;;;;;;;22.37;12.82;;;;;;;;;;1746864;80;21864;-49
2022/11/02 14:36:50;;;;;;;27.15;11.95;;;;;;;;;;1741108;80;21186;-49
2022/11/02 14:39:31;;;;;;;20.68;12.55;;;;;;;;;;1735486;81;20998;-49
2022/11/02 14:42:04;;;;;;;22.25;13.43;;;;;;;;;;1707807;82;21516;-48
2022/11/02 14:45:00;;;;;;;20.37;12.30;;;;;;;;;;1722916;81;21204;-48
2022/11/02 14:47:28;;;;;;;20.32;12.85;;;;;;;;;;1713051;81;21909;-48
2022/11/02 14:50:13;;;;;;;22.58;12.65;;;;;;;;;;1710467;82;21175;-48
2022/11/02 14:52:41;;;;;;;26.00;15.80;;;;;;;;;;1716131;82;21083;-49
2022/11/02 14:55:20;;;;;;;24.70;13.58;;;;;;;;;;1702883;82;21112;-50
2022/11/02 14:57:58;;;;;;;20.32;13.10;;;;;;;;;;1697702;81;21092;-49
2022/11/02 15:00:50;;;;;;;22.65;14.45;;;;;;;;;;1740990;80;22251;-46
2022/11/02 15:03:26;;;;;;;26.30;15.80;;;;;;;;;;1741726;81;21049;-47